METAR AND TAF INFORMATION
METAR FOR EHRD
ADDS - METARS form results

(1206 UTC 27 June 2019)
Data provider http://aviationweather.gov/metar/data/
 
METAR text: EHRD 271155Z AUTO 03011KT 340V080 9999 NCD 21/13 Q1029 NOSIG
Conditions at: EHRD (ROTTERDAM AIRPOR, NL) observed 1155 UTC 27 June 2019
Temperature: 21.0°C (70°F)
Dewpoint: 13.0°C (55°F) [RH = 60%]
Pressure (altimeter): 30.38 inches Hg (1029.0 mb)
Winds: from the NNE (30 degrees) at 13 MPH (11 knots; 5.7 m/s)
Visibility: 6 or more miles (10+ km)
Ceiling: at least 12,000 feet AGL
Clouds: sky clear below 12,000 feet AGL
Weather: no significant weather observed at this time

METAR text: EHRD 271125Z AUTO 03008KT 340V080 9999 NCD 21/14 Q1029 NOSIG
Conditions at: EHRD (ROTTERDAM AIRPOR, NL) observed 1125 UTC 27 June 2019
Temperature: 21.0°C (70°F)
Dewpoint: 14.0°C (57°F) [RH = 64%]
Pressure (altimeter): 30.38 inches Hg (1029.0 mb)
Winds: from the NNE (30 degrees) at 9 MPH (8 knots; 4.1 m/s)
Visibility: 6 or more miles (10+ km)
Ceiling: at least 12,000 feet AGL
Clouds: sky clear below 12,000 feet AGL
Weather: no significant weather observed at this time

Forecast for: COR
Text: TAF COR EHRD 271106Z 2712/2818 03008KT CAVOK
Forecast period: 1200 UTC 27 June 2019 to 1800 UTC 28 June 2019
Forecast type: FROM: standard forecast or significant change
Winds: from the NNE (30 degrees) at 9 MPH (8 knots; 4.1 m/s)
Visibility: 6 or more miles 10+ km)
Ceiling: unknown
Clouds: missing
Weather: NSW  (no significant weather)
Text: PROB30
Forecast period: 0000 to 0900 UTC 28 June 2019
Forecast type: TEMPORARY: The following changes expected for less than half the time period
Visibility: missing
Ceiling: 1400 feet AGL
Clouds: broken clouds at 1400 feet AGL
Weather: no significant weather forecast for this period

 AIRPORT MAP

 RUNWAY INFORMATION
Runway 06 Runway length 7218 ft Runway width 148 ft
Runway elevation 0 ft Runway displaced threshold 656 ft Runway heading 57
Runway 24 Runway length 7218 ft Runway width 148 ft
Runway elevation 0 ft Runway displaced threshold 656 ft Runway heading 237

 AIRPORT FREQUENCIES
Type A/D Name SCHIPHOL Frequency 121.2 MHZ
Type APP Name APP Frequency 127.025 MHZ
Type ATIS Name ATIS Frequency 110.4 MHZ
Type GND Name GND Frequency 122.175 MHZ
Type TWR Name TWR Frequency 118.2 MHZ

 AIRPORT NEAR NAVIGATION AIDS
Type NDB Name Rotterdam Frequency 351 KHZ
Type VOR-DME Name Rotterdam Frequency 110400 KHZ